sensor_id;sensor_type;location;lat;lon;timestamp;P1;durP1;ratioP1;P2;durP2;ratioP2
56752;SDS011;42627;42.646;23.642;2023-05-10T00:00:15;5.43;;;3.20;;
56752;SDS011;42627;42.646;23.642;2023-05-10T00:02:16;7.00;;;3.50;;
56752;SDS011;42627;42.646;23.642;2023-05-10T00:04:17;3.97;;;2.40;;
56752;SDS011;42627;42.646;23.642;2023-05-10T00:06:18;4.88;;;2.67;;
56752;SDS011;42627;42.646;23.642;2023-05-10T00:08:20;6.15;;;3.30;;
56752;SDS011;42627;42.646;23.642;2023-05-10T00:10:21;4.63;;;2.35;;
56752;SDS011;42627;42.646;23.642;2023-05-10T00:12:34;6.15;;;3.05;;
56752;SDS011;42627;42.646;23.642;2023-05-10T00:14:35;4.97;;;2.72;;
56752;SDS011;42627;42.646;23.642;2023-05-10T00:16:36;5.30;;;2.95;;
56752;SDS011;42627;42.646;23.642;2023-05-10T00:18:37;4.93;;;2.78;;
56752;SDS011;42627;42.646;23.642;2023-05-10T00:20:38;4.57;;;2.50;;
56752;SDS011;42627;42.646;23.642;2023-05-10T00:22:57;4.60;;;2.78;;
56752;SDS011;42627;42.646;23.642;2023-05-10T00:25:13;5.53;;;2.67;;
56752;SDS011;42627;42.646;23.642;2023-05-10T00:27:26;4.18;;;2.38;;
56752;SDS011;42627;42.646;23.642;2023-05-10T00:29:27;4.55;;;2.88;;
56752;SDS011;42627;42.646;23.642;2023-05-10T00:31:28;6.25;;;2.80;;
56752;SDS011;42627;42.646;23.642;2023-05-10T00:33:29;5.18;;;2.67;;
56752;SDS011;42627;42.646;23.642;2023-05-10T00:35:30;4.63;;;2.55;;
56752;SDS011;42627;42.646;23.642;2023-05-10T00:37:32;5.18;;;3.05;;
56752;SDS011;42627;42.646;23.642;2023-05-10T00:39:33;4.78;;;2.67;;
56752;SDS011;42627;42.646;23.642;2023-05-10T00:41:34;3.42;;;2.10;;
56752;SDS011;42627;42.646;23.642;2023-05-10T00:43:38;4.40;;;2.50;;
56752;SDS011;42627;42.646;23.642;2023-05-10T00:45:39;4.88;;;2.72;;
56752;SDS011;42627;42.646;23.642;2023-05-10T00:47:40;4.43;;;2.97;;
56752;SDS011;42627;42.646;23.642;2023-05-10T00:49:41;3.95;;;2.28;;
56752;SDS011;42627;42.646;23.642;2023-05-10T00:51:43;8.77;;;3.03;;
56752;SDS011;42627;42.646;23.642;2023-05-10T00:58:31;4.05;;;2.35;;
56752;SDS011;42627;42.646;23.642;2023-05-10T01:00:32;5.32;;;2.63;;
56752;SDS011;42627;42.646;23.642;2023-05-10T01:02:34;6.47;;;3.08;;
56752;SDS011;42627;42.646;23.642;2023-05-10T01:04:35;5.13;;;2.63;;
56752;SDS011;42627;42.646;23.642;2023-05-10T01:06:36;6.05;;;3.22;;
56752;SDS011;42627;42.646;23.642;2023-05-10T01:08:37;6.15;;;3.22;;
56752;SDS011;42627;42.646;23.642;2023-05-10T01:10:39;6.28;;;3.20;;
56752;SDS011;42627;42.646;23.642;2023-05-10T01:12:46;6.75;;;3.50;;
56752;SDS011;42627;42.646;23.642;2023-05-10T01:14:48;5.82;;;3.42;;
56752;SDS011;42627;42.646;23.642;2023-05-10T01:16:49;7.00;;;3.70;;
56752;SDS011;42627;42.646;23.642;2023-05-10T01:18:50;6.88;;;4.13;;
56752;SDS011;42627;42.646;23.642;2023-05-10T01:20:55;7.80;;;3.92;;
56752;SDS011;42627;42.646;23.642;2023-05-10T01:28:39;6.28;;;3.10;;
56752;SDS011;42627;42.646;23.642;2023-05-10T01:31:06;6.05;;;3.40;;
56752;SDS011;42627;42.646;23.642;2023-05-10T01:33:19;6.55;;;3.40;;
56752;SDS011;42627;42.646;23.642;2023-05-10T01:38:13;7.82;;;4.10;;
56752;SDS011;42627;42.646;23.642;2023-05-10T01:40:23;7.10;;;3.88;;
56752;SDS011;42627;42.646;23.642;2023-05-10T01:43:19;7.20;;;4.10;;
56752;SDS011;42627;42.646;23.642;2023-05-10T01:45:29;8.13;;;4.65;;
56752;SDS011;42627;42.646;23.642;2023-05-10T01:47:41;7.07;;;4.10;;
56752;SDS011;42627;42.646;23.642;2023-05-10T01:49:55;8.27;;;4.10;;
56752;SDS011;42627;42.646;23.642;2023-05-10T01:52:01;7.75;;;4.35;;
56752;SDS011;42627;42.646;23.642;2023-05-10T01:54:07;7.63;;;4.40;;
56752;SDS011;42627;42.646;23.642;2023-05-10T02:00:58;4.68;;;3.15;;
56752;SDS011;42627;42.646;23.642;2023-05-10T02:03:10;6.90;;;4.05;;
56752;SDS011;42627;42.646;23.642;2023-05-10T02:05:14;6.88;;;3.72;;
56752;SDS011;42627;42.646;23.642;2023-05-10T02:07:17;7.18;;;3.92;;
56752;SDS011;42627;42.646;23.642;2023-05-10T02:09:19;6.00;;;3.28;;
56752;SDS011;42627;42.646;23.642;2023-05-10T02:11:21;6.57;;;3.85;;
56752;SDS011;42627;42.646;23.642;2023-05-10T02:13:23;7.68;;;4.60;;
56752;SDS011;42627;42.646;23.642;2023-05-10T02:15:26;5.40;;;3.35;;
56752;SDS011;42627;42.646;23.642;2023-05-10T02:17:27;5.97;;;3.03;;
56752;SDS011;42627;42.646;23.642;2023-05-10T02:19:31;6.28;;;3.50;;
56752;SDS011;42627;42.646;23.642;2023-05-10T02:21:33;5.32;;;3.30;;
56752;SDS011;42627;42.646;23.642;2023-05-10T02:23:35;6.38;;;4.00;;
56752;SDS011;42627;42.646;23.642;2023-05-10T02:25:37;6.70;;;3.50;;
56752;SDS011;42627;42.646;23.642;2023-05-10T02:27:38;7.05;;;3.70;;
56752;SDS011;42627;42.646;23.642;2023-05-10T02:29:42;5.85;;;3.60;;
56752;SDS011;42627;42.646;23.642;2023-05-10T02:36:47;5.03;;;2.40;;
56752;SDS011;42627;42.646;23.642;2023-05-10T02:38:49;4.88;;;3.00;;
56752;SDS011;42627;42.646;23.642;2023-05-10T02:40:52;5.88;;;2.25;;
56752;SDS011;42627;42.646;23.642;2023-05-10T02:42:56;4.13;;;2.33;;
56752;SDS011;42627;42.646;23.642;2023-05-10T02:45:18;5.18;;;3.00;;
56752;SDS011;42627;42.646;23.642;2023-05-10T02:47:21;4.85;;;2.63;;
56752;SDS011;42627;42.646;23.642;2023-05-10T02:49:22;5.88;;;2.70;;
56752;SDS011;42627;42.646;23.642;2023-05-10T02:51:24;6.55;;;2.42;;
56752;SDS011;42627;42.646;23.642;2023-05-10T02:53:30;4.28;;;2.28;;
56752;SDS011;42627;42.646;23.642;2023-05-10T02:55:32;3.53;;;1.98;;
56752;SDS011;42627;42.646;23.642;2023-05-10T02:57:36;4.93;;;2.65;;
56752;SDS011;42627;42.646;23.642;2023-05-10T02:59:40;6.22;;;3.08;;
56752;SDS011;42627;42.646;23.642;2023-05-10T03:04:20;5.20;;;2.65;;
56752;SDS011;42627;42.646;23.642;2023-05-10T03:08:27;6.20;;;2.70;;
56752;SDS011;42627;42.646;23.642;2023-05-10T03:10:29;4.55;;;2.45;;
56752;SDS011;42627;42.646;23.642;2023-05-10T03:12:33;5.20;;;2.30;;
56752;SDS011;42627;42.646;23.642;2023-05-10T03:17:30;5.38;;;2.70;;
56752;SDS011;42627;42.646;23.642;2023-05-10T03:20:03;5.00;;;2.88;;
56752;SDS011;42627;42.646;23.642;2023-05-10T03:22:10;4.38;;;2.50;;
56752;SDS011;42627;42.646;23.642;2023-05-10T03:24:12;5.57;;;2.63;;
56752;SDS011;42627;42.646;23.642;2023-05-10T03:26:20;5.82;;;2.80;;
56752;SDS011;42627;42.646;23.642;2023-05-10T03:28:24;8.98;;;2.40;;
56752;SDS011;42627;42.646;23.642;2023-05-10T03:37:33;6.68;;;2.90;;
56752;SDS011;42627;42.646;23.642;2023-05-10T03:39:34;5.55;;;2.53;;
56752;SDS011;42627;42.646;23.642;2023-05-10T03:41:35;6.50;;;3.40;;
56752;SDS011;42627;42.646;23.642;2023-05-10T03:43:36;6.60;;;3.13;;
56752;SDS011;42627;42.646;23.642;2023-05-10T03:45:42;7.90;;;3.13;;
56752;SDS011;42627;42.646;23.642;2023-05-10T03:47:43;6.18;;;3.33;;
56752;SDS011;42627;42.646;23.642;2023-05-10T03:51:54;6.55;;;3.60;;
56752;SDS011;42627;42.646;23.642;2023-05-10T03:53:55;8.55;;;3.83;;
56752;SDS011;42627;42.646;23.642;2023-05-10T03:55:55;5.85;;;3.15;;
56752;SDS011;42627;42.646;23.642;2023-05-10T03:57:56;6.70;;;3.35;;
56752;SDS011;42627;42.646;23.642;2023-05-10T03:59:57;7.75;;;3.35;;
56752;SDS011;42627;42.646;23.642;2023-05-10T04:01:58;5.90;;;3.28;;
56752;SDS011;42627;42.646;23.642;2023-05-10T04:03:59;5.88;;;3.75;;
56752;SDS011;42627;42.646;23.642;2023-05-10T04:06:18;7.60;;;3.65;;
56752;SDS011;42627;42.646;23.642;2023-05-10T04:08:37;7.97;;;3.63;;
56752;SDS011;42627;42.646;23.642;2023-05-10T04:11:08;7.32;;;4.32;;
56752;SDS011;42627;42.646;23.642;2023-05-10T04:13:09;8.43;;;4.85;;
56752;SDS011;42627;42.646;23.642;2023-05-10T04:15:11;8.48;;;4.93;;
56752;SDS011;42627;42.646;23.642;2023-05-10T04:17:12;11.32;;;5.20;;
56752;SDS011;42627;42.646;23.642;2023-05-10T04:19:13;11.60;;;6.18;;
56752;SDS011;42627;42.646;23.642;2023-05-10T04:21:19;9.82;;;5.88;;
56752;SDS011;42627;42.646;23.642;2023-05-10T04:23:20;9.30;;;4.88;;
56752;SDS011;42627;42.646;23.642;2023-05-10T04:25:21;8.98;;;4.55;;
56752;SDS011;42627;42.646;23.642;2023-05-10T04:27:22;6.45;;;3.67;;
56752;SDS011;42627;42.646;23.642;2023-05-10T04:29:23;7.82;;;4.07;;
56752;SDS011;42627;42.646;23.642;2023-05-10T04:31:27;7.32;;;3.70;;
56752;SDS011;42627;42.646;23.642;2023-05-10T04:33:28;6.20;;;3.50;;
56752;SDS011;42627;42.646;23.642;2023-05-10T04:37:51;7.45;;;3.72;;
56752;SDS011;42627;42.646;23.642;2023-05-10T04:39:52;7.15;;;3.50;;
56752;SDS011;42627;42.646;23.642;2023-05-10T04:41:53;7.15;;;3.45;;
56752;SDS011;42627;42.646;23.642;2023-05-10T04:43:55;7.28;;;3.30;;
56752;SDS011;42627;42.646;23.642;2023-05-10T04:45:56;7.07;;;4.10;;
56752;SDS011;42627;42.646;23.642;2023-05-10T04:47:57;5.95;;;3.58;;
56752;SDS011;42627;42.646;23.642;2023-05-10T04:50:10;6.03;;;3.40;;
56752;SDS011;42627;42.646;23.642;2023-05-10T04:54:52;5.97;;;3.03;;
56752;SDS011;42627;42.646;23.642;2023-05-10T04:56:53;11.25;;;3.72;;
56752;SDS011;42627;42.646;23.642;2023-05-10T04:58:54;7.20;;;3.67;;
56752;SDS011;42627;42.646;23.642;2023-05-10T05:00:55;6.75;;;3.58;;
56752;SDS011;42627;42.646;23.642;2023-05-10T05:02:56;6.75;;;3.45;;
56752;SDS011;42627;42.646;23.642;2023-05-10T05:05:02;7.13;;;3.25;;
56752;SDS011;42627;42.646;23.642;2023-05-10T05:07:03;6.43;;;3.25;;
56752;SDS011;42627;42.646;23.642;2023-05-10T05:09:04;6.03;;;3.20;;
56752;SDS011;42627;42.646;23.642;2023-05-10T05:11:05;5.13;;;2.90;;
56752;SDS011;42627;42.646;23.642;2023-05-10T05:13:06;5.30;;;3.05;;
56752;SDS011;42627;42.646;23.642;2023-05-10T05:15:08;6.47;;;3.05;;
56752;SDS011;42627;42.646;23.642;2023-05-10T05:17:09;7.43;;;3.05;;
56752;SDS011;42627;42.646;23.642;2023-05-10T05:19:10;5.88;;;3.33;;
56752;SDS011;42627;42.646;23.642;2023-05-10T05:21:15;6.05;;;3.40;;
56752;SDS011;42627;42.646;23.642;2023-05-10T05:25:18;6.10;;;2.97;;
56752;SDS011;42627;42.646;23.642;2023-05-10T05:27:19;5.32;;;3.08;;
56752;SDS011;42627;42.646;23.642;2023-05-10T05:29:24;5.07;;;2.87;;
56752;SDS011;42627;42.646;23.642;2023-05-10T05:31:40;6.85;;;3.17;;
56752;SDS011;42627;42.646;23.642;2023-05-10T05:36:13;8.18;;;2.72;;
56752;SDS011;42627;42.646;23.642;2023-05-10T05:38:14;8.77;;;2.90;;
56752;SDS011;42627;42.646;23.642;2023-05-10T05:40:15;8.32;;;3.05;;
56752;SDS011;42627;42.646;23.642;2023-05-10T05:42:17;5.38;;;2.70;;
56752;SDS011;42627;42.646;23.642;2023-05-10T05:44:18;5.10;;;2.83;;
56752;SDS011;42627;42.646;23.642;2023-05-10T05:46:19;5.13;;;2.65;;
56752;SDS011;42627;42.646;23.642;2023-05-10T05:48:20;4.78;;;2.60;;
56752;SDS011;42627;42.646;23.642;2023-05-10T05:52:32;5.45;;;2.95;;
56752;SDS011;42627;42.646;23.642;2023-05-10T05:54:33;6.38;;;2.95;;
56752;SDS011;42627;42.646;23.642;2023-05-10T05:56:34;5.63;;;2.42;;
56752;SDS011;42627;42.646;23.642;2023-05-10T05:58:35;5.97;;;2.72;;
56752;SDS011;42627;42.646;23.642;2023-05-10T06:00:36;6.28;;;2.55;;
56752;SDS011;42627;42.646;23.642;2023-05-10T06:02:37;5.93;;;2.80;;
56752;SDS011;42627;42.646;23.642;2023-05-10T06:04:47;4.78;;;2.72;;
56752;SDS011;42627;42.646;23.642;2023-05-10T06:07:01;5.72;;;2.83;;
56752;SDS011;42627;42.646;23.642;2023-05-10T06:09:11;6.43;;;3.20;;
56752;SDS011;42627;42.646;23.642;2023-05-10T06:11:12;4.75;;;2.38;;
56752;SDS011;42627;42.646;23.642;2023-05-10T06:13:13;5.13;;;2.58;;
56752;SDS011;42627;42.646;23.642;2023-05-10T06:15:14;5.30;;;2.45;;
56752;SDS011;42627;42.646;23.642;2023-05-10T06:17:16;5.10;;;2.75;;
56752;SDS011;42627;42.646;23.642;2023-05-10T06:19:17;5.88;;;2.90;;
56752;SDS011;42627;42.646;23.642;2023-05-10T06:21:18;4.85;;;2.80;;
56752;SDS011;42627;42.646;23.642;2023-05-10T06:23:19;4.50;;;2.40;;
56752;SDS011;42627;42.646;23.642;2023-05-10T06:25:20;6.28;;;2.90;;
56752;SDS011;42627;42.646;23.642;2023-05-10T06:27:22;5.55;;;3.08;;
56752;SDS011;42627;42.646;23.642;2023-05-10T06:29:23;5.75;;;2.80;;
56752;SDS011;42627;42.646;23.642;2023-05-10T06:31:24;5.00;;;2.80;;
56752;SDS011;42627;42.646;23.642;2023-05-10T06:33:25;4.60;;;2.78;;
56752;SDS011;42627;42.646;23.642;2023-05-10T06:35:27;6.65;;;2.55;;
56752;SDS011;42627;42.646;23.642;2023-05-10T06:37:28;4.70;;;2.60;;
56752;SDS011;42627;42.646;23.642;2023-05-10T06:41:40;6.55;;;3.38;;
56752;SDS011;42627;42.646;23.642;2023-05-10T06:43:41;5.38;;;3.10;;
56752;SDS011;42627;42.646;23.642;2023-05-10T06:45:43;5.50;;;2.80;;
56752;SDS011;42627;42.646;23.642;2023-05-10T06:47:44;5.85;;;3.10;;
56752;SDS011;42627;42.646;23.642;2023-05-10T06:52:11;5.40;;;2.63;;
56752;SDS011;42627;42.646;23.642;2023-05-10T06:54:39;5.93;;;2.50;;
56752;SDS011;42627;42.646;23.642;2023-05-10T06:56:41;5.78;;;3.03;;
56752;SDS011;42627;42.646;23.642;2023-05-10T06:58:42;6.95;;;3.25;;
56752;SDS011;42627;42.646;23.642;2023-05-10T07:00:43;6.57;;;3.42;;
56752;SDS011;42627;42.646;23.642;2023-05-10T07:02:45;5.85;;;3.25;;
56752;SDS011;42627;42.646;23.642;2023-05-10T07:04:47;6.25;;;3.00;;
56752;SDS011;42627;42.646;23.642;2023-05-10T07:06:48;5.40;;;2.67;;
56752;SDS011;42627;42.646;23.642;2023-05-10T07:08:49;5.93;;;3.50;;
56752;SDS011;42627;42.646;23.642;2023-05-10T07:10:51;4.97;;;2.80;;
56752;SDS011;42627;42.646;23.642;2023-05-10T07:12:52;7.28;;;3.35;;
56752;SDS011;42627;42.646;23.642;2023-05-10T07:14:53;5.68;;;2.53;;
56752;SDS011;42627;42.646;23.642;2023-05-10T07:16:54;5.50;;;2.88;;
56752;SDS011;42627;42.646;23.642;2023-05-10T07:18:55;6.35;;;3.67;;
56752;SDS011;42627;42.646;23.642;2023-05-10T07:20:57;10.75;;;2.95;;
56752;SDS011;42627;42.646;23.642;2023-05-10T07:22:58;6.07;;;3.10;;
56752;SDS011;42627;42.646;23.642;2023-05-10T07:27:10;6.30;;;3.08;;
56752;SDS011;42627;42.646;23.642;2023-05-10T07:29:11;6.35;;;2.47;;
56752;SDS011;42627;42.646;23.642;2023-05-10T07:31:12;6.70;;;3.08;;
56752;SDS011;42627;42.646;23.642;2023-05-10T07:33:14;5.65;;;3.65;;
56752;SDS011;42627;42.646;23.642;2023-05-10T07:35:15;6.95;;;3.97;;
56752;SDS011;42627;42.646;23.642;2023-05-10T07:37:16;6.13;;;3.80;;
56752;SDS011;42627;42.646;23.642;2023-05-10T07:39:33;5.68;;;3.80;;
56752;SDS011;42627;42.646;23.642;2023-05-10T07:44:06;7.00;;;3.40;;
56752;SDS011;42627;42.646;23.642;2023-05-10T07:46:07;6.68;;;3.35;;
56752;SDS011;42627;42.646;23.642;2023-05-10T07:48:19;7.97;;;4.13;;
56752;SDS011;42627;42.646;23.642;2023-05-10T07:50:20;6.55;;;3.22;;
56752;SDS011;42627;42.646;23.642;2023-05-10T07:52:21;6.50;;;3.28;;
56752;SDS011;42627;42.646;23.642;2023-05-10T07:54:31;6.88;;;3.42;;
56752;SDS011;42627;42.646;23.642;2023-05-10T07:56:33;7.00;;;3.05;;
56752;SDS011;42627;42.646;23.642;2023-05-10T07:58:34;11.57;;;4.50;;
56752;SDS011;42627;42.646;23.642;2023-05-10T08:00:35;11.45;;;5.47;;
56752;SDS011;42627;42.646;23.642;2023-05-10T08:02:39;7.78;;;3.70;;
56752;SDS011;42627;42.646;23.642;2023-05-10T08:04:41;7.22;;;4.93;;
56752;SDS011;42627;42.646;23.642;2023-05-10T08:06:42;5.97;;;3.22;;
56752;SDS011;42627;42.646;23.642;2023-05-10T08:08:43;5.35;;;3.60;;
56752;SDS011;42627;42.646;23.642;2023-05-10T08:13:00;5.47;;;2.90;;
56752;SDS011;42627;42.646;23.642;2023-05-10T08:15:01;5.28;;;2.90;;
56752;SDS011;42627;42.646;23.642;2023-05-10T08:17:02;7.95;;;3.50;;
56752;SDS011;42627;42.646;23.642;2023-05-10T08:19:03;9.18;;;3.20;;
56752;SDS011;42627;42.646;23.642;2023-05-10T08:25:56;7.68;;;3.60;;
56752;SDS011;42627;42.646;23.642;2023-05-10T08:27:57;5.63;;;3.33;;
56752;SDS011;42627;42.646;23.642;2023-05-10T08:29:58;8.90;;;5.32;;
56752;SDS011;42627;42.646;23.642;2023-05-10T08:31:59;11.52;;;5.72;;
56752;SDS011;42627;42.646;23.642;2023-05-10T08:34:00;19.83;;;9.85;;
56752;SDS011;42627;42.646;23.642;2023-05-10T08:36:01;4.38;;;3.08;;
56752;SDS011;42627;42.646;23.642;2023-05-10T08:38:03;5.78;;;2.88;;
56752;SDS011;42627;42.646;23.642;2023-05-10T08:40:04;6.35;;;3.25;;
56752;SDS011;42627;42.646;23.642;2023-05-10T08:42:05;5.20;;;2.90;;
56752;SDS011;42627;42.646;23.642;2023-05-10T08:44:07;4.78;;;3.25;;
56752;SDS011;42627;42.646;23.642;2023-05-10T08:46:08;6.65;;;3.10;;
56752;SDS011;42627;42.646;23.642;2023-05-10T08:48:10;5.85;;;2.83;;
56752;SDS011;42627;42.646;23.642;2023-05-10T08:50:11;6.60;;;3.53;;
56752;SDS011;42627;42.646;23.642;2023-05-10T08:52:13;5.75;;;3.42;;
56752;SDS011;42627;42.646;23.642;2023-05-10T08:54:21;5.57;;;2.90;;
56752;SDS011;42627;42.646;23.642;2023-05-10T08:56:23;5.63;;;3.63;;
56752;SDS011;42627;42.646;23.642;2023-05-10T08:58:24;7.80;;;2.80;;
56752;SDS011;42627;42.646;23.642;2023-05-10T09:00:26;4.57;;;2.50;;
56752;SDS011;42627;42.646;23.642;2023-05-10T09:02:27;11.00;;;3.80;;
56752;SDS011;42627;42.646;23.642;2023-05-10T09:04:38;5.03;;;2.72;;
56752;SDS011;42627;42.646;23.642;2023-05-10T09:11:25;5.75;;;2.47;;
56752;SDS011;42627;42.646;23.642;2023-05-10T09:13:28;5.93;;;2.58;;
56752;SDS011;42627;42.646;23.642;2023-05-10T09:15:30;6.82;;;2.72;;
56752;SDS011;42627;42.646;23.642;2023-05-10T09:17:31;6.28;;;2.50;;
56752;SDS011;42627;42.646;23.642;2023-05-10T09:19:32;4.25;;;2.22;;
56752;SDS011;42627;42.646;23.642;2023-05-10T09:21:33;6.20;;;2.70;;
56752;SDS011;42627;42.646;23.642;2023-05-10T09:26:04;4.47;;;2.67;;
56752;SDS011;42627;42.646;23.642;2023-05-10T09:28:06;4.75;;;2.50;;
56752;SDS011;42627;42.646;23.642;2023-05-10T09:30:07;4.90;;;2.80;;
56752;SDS011;42627;42.646;23.642;2023-05-10T09:32:09;5.47;;;2.75;;
56752;SDS011;42627;42.646;23.642;2023-05-10T09:34:19;4.43;;;2.38;;
56752;SDS011;42627;42.646;23.642;2023-05-10T09:41:19;4.68;;;2.50;;
56752;SDS011;42627;42.646;23.642;2023-05-10T09:43:20;5.82;;;2.95;;
56752;SDS011;42627;42.646;23.642;2023-05-10T09:45:22;5.53;;;3.05;;
56752;SDS011;42627;42.646;23.642;2023-05-10T09:47:24;4.63;;;2.78;;
56752;SDS011;42627;42.646;23.642;2023-05-10T09:49:26;3.35;;;2.33;;
56752;SDS011;42627;42.646;23.642;2023-05-10T09:51:27;4.57;;;2.72;;
56752;SDS011;42627;42.646;23.642;2023-05-10T09:55:40;6.85;;;2.80;;
56752;SDS011;42627;42.646;23.642;2023-05-10T09:57:44;5.22;;;2.53;;
56752;SDS011;42627;42.646;23.642;2023-05-10T09:59:45;4.88;;;2.83;;
56752;SDS011;42627;42.646;23.642;2023-05-10T10:01:50;6.60;;;2.53;;
56752;SDS011;42627;42.646;23.642;2023-05-10T10:03:51;7.03;;;2.92;;
56752;SDS011;42627;42.646;23.642;2023-05-10T10:05:53;5.60;;;2.72;;
56752;SDS011;42627;42.646;23.642;2023-05-10T10:07:59;4.47;;;2.75;;
56752;SDS011;42627;42.646;23.642;2023-05-10T10:14:51;5.20;;;2.50;;
56752;SDS011;42627;42.646;23.642;2023-05-10T10:16:53;4.95;;;2.40;;
56752;SDS011;42627;42.646;23.642;2023-05-10T10:18:54;5.50;;;2.50;;
56752;SDS011;42627;42.646;23.642;2023-05-10T10:20:56;5.90;;;2.70;;
56752;SDS011;42627;42.646;23.642;2023-05-10T10:22:58;5.95;;;2.80;;
56752;SDS011;42627;42.646;23.642;2023-05-10T10:25:04;7.35;;;3.50;;
56752;SDS011;42627;42.646;23.642;2023-05-10T10:27:12;4.78;;;2.88;;
56752;SDS011;42627;42.646;23.642;2023-05-10T10:33:39;7.80;;;5.65;;
56752;SDS011;42627;42.646;23.642;2023-05-10T10:35:41;7.65;;;3.38;;
56752;SDS011;42627;42.646;23.642;2023-05-10T10:37:44;5.78;;;2.90;;
56752;SDS011;42627;42.646;23.642;2023-05-10T10:39:47;7.80;;;5.05;;
56752;SDS011;42627;42.646;23.642;2023-05-10T10:41:52;8.15;;;4.38;;
56752;SDS011;42627;42.646;23.642;2023-05-10T10:48:21;5.47;;;2.40;;
56752;SDS011;42627;42.646;23.642;2023-05-10T10:50:28;4.95;;;2.38;;
56752;SDS011;42627;42.646;23.642;2023-05-10T10:52:33;4.07;;;2.30;;
56752;SDS011;42627;42.646;23.642;2023-05-10T10:56:35;3.95;;;2.45;;
56752;SDS011;42627;42.646;23.642;2023-05-10T10:58:37;4.63;;;2.20;;
56752;SDS011;42627;42.646;23.642;2023-05-10T11:00:38;3.95;;;2.08;;
56752;SDS011;42627;42.646;23.642;2023-05-10T11:02:44;4.65;;;2.45;;
56752;SDS011;42627;42.646;23.642;2023-05-10T11:04:48;5.15;;;2.67;;
56752;SDS011;42627;42.646;23.642;2023-05-10T11:06:48;4.40;;;2.45;;
56752;SDS011;42627;42.646;23.642;2023-05-10T11:14:02;4.65;;;3.03;;
56752;SDS011;42627;42.646;23.642;2023-05-10T11:18:17;5.78;;;2.53;;
56752;SDS011;42627;42.646;23.642;2023-05-10T11:20:19;5.40;;;3.35;;
56752;SDS011;42627;42.646;23.642;2023-05-10T11:22:23;5.63;;;2.33;;
56752;SDS011;42627;42.646;23.642;2023-05-10T11:24:27;4.20;;;2.42;;
56752;SDS011;42627;42.646;23.642;2023-05-10T11:26:34;3.88;;;2.10;;
56752;SDS011;42627;42.646;23.642;2023-05-10T11:30:46;6.72;;;2.47;;
56752;SDS011;42627;42.646;23.642;2023-05-10T11:32:47;4.72;;;2.22;;
56752;SDS011;42627;42.646;23.642;2023-05-10T11:34:48;6.28;;;2.58;;
56752;SDS011;42627;42.646;23.642;2023-05-10T11:36:52;4.55;;;2.35;;
56752;SDS011;42627;42.646;23.642;2023-05-10T11:41:27;5.50;;;2.45;;
56752;SDS011;42627;42.646;23.642;2023-05-10T11:43:47;6.32;;;2.72;;
56752;SDS011;42627;42.646;23.642;2023-05-10T11:45:57;5.75;;;2.90;;
56752;SDS011;42627;42.646;23.642;2023-05-10T11:47:58;5.18;;;2.40;;
56752;SDS011;42627;42.646;23.642;2023-05-10T11:49:59;3.85;;;2.38;;
56752;SDS011;42627;42.646;23.642;2023-05-10T11:52:04;6.78;;;2.60;;
56752;SDS011;42627;42.646;23.642;2023-05-10T11:56:08;4.65;;;1.90;;
56752;SDS011;42627;42.646;23.642;2023-05-10T11:58:15;4.78;;;2.63;;
56752;SDS011;42627;42.646;23.642;2023-05-10T12:02:16;6.38;;;2.40;;
56752;SDS011;42627;42.646;23.642;2023-05-10T12:04:17;3.97;;;2.53;;
56752;SDS011;42627;42.646;23.642;2023-05-10T12:06:18;4.72;;;2.50;;
56752;SDS011;42627;42.646;23.642;2023-05-10T12:08:30;4.70;;;2.80;;
56752;SDS011;42627;42.646;23.642;2023-05-10T12:13:11;4.78;;;2.72;;
56752;SDS011;42627;42.646;23.642;2023-05-10T12:15:20;4.32;;;2.33;;
56752;SDS011;42627;42.646;23.642;2023-05-10T12:17:26;3.25;;;1.95;;
56752;SDS011;42627;42.646;23.642;2023-05-10T12:19:27;5.53;;;2.38;;
56752;SDS011;42627;42.646;23.642;2023-05-10T12:21:29;4.05;;;2.70;;
56752;SDS011;42627;42.646;23.642;2023-05-10T12:23:30;4.55;;;2.40;;
56752;SDS011;42627;42.646;23.642;2023-05-10T12:25:34;5.03;;;2.45;;
56752;SDS011;42627;42.646;23.642;2023-05-10T12:29:47;8.43;;;2.92;;
56752;SDS011;42627;42.646;23.642;2023-05-10T12:32:03;6.63;;;2.35;;
56752;SDS011;42627;42.646;23.642;2023-05-10T12:34:04;5.45;;;2.72;;
56752;SDS011;42627;42.646;23.642;2023-05-10T12:36:05;4.20;;;2.38;;
56752;SDS011;42627;42.646;23.642;2023-05-10T12:40:50;5.03;;;2.08;;
56752;SDS011;42627;42.646;23.642;2023-05-10T12:43:03;4.32;;;2.35;;
56752;SDS011;42627;42.646;23.642;2023-05-10T12:45:07;6.03;;;2.92;;
56752;SDS011;42627;42.646;23.642;2023-05-10T12:47:09;5.03;;;2.55;;
56752;SDS011;42627;42.646;23.642;2023-05-10T12:49:10;4.80;;;2.60;;
56752;SDS011;42627;42.646;23.642;2023-05-10T12:51:11;4.53;;;2.22;;
56752;SDS011;42627;42.646;23.642;2023-05-10T12:53:13;4.47;;;2.53;;
56752;SDS011;42627;42.646;23.642;2023-05-10T12:55:15;4.60;;;2.58;;
56752;SDS011;42627;42.646;23.642;2023-05-10T12:59:35;5.13;;;2.53;;
56752;SDS011;42627;42.646;23.642;2023-05-10T13:01:36;4.88;;;3.13;;
56752;SDS011;42627;42.646;23.642;2023-05-10T13:03:37;5.35;;;2.70;;
56752;SDS011;42627;42.646;23.642;2023-05-10T13:05:37;5.40;;;2.67;;
56752;SDS011;42627;42.646;23.642;2023-05-10T13:07:44;4.32;;;2.40;;
56752;SDS011;42627;42.646;23.642;2023-05-10T13:12:28;9.50;;;3.00;;
56752;SDS011;42627;42.646;23.642;2023-05-10T13:14:29;5.47;;;3.15;;
56752;SDS011;42627;42.646;23.642;2023-05-10T13:16:30;7.03;;;2.83;;
56752;SDS011;42627;42.646;23.642;2023-05-10T13:18:31;6.20;;;2.65;;
56752;SDS011;42627;42.646;23.642;2023-05-10T13:20:32;4.70;;;2.53;;
56752;SDS011;42627;42.646;23.642;2023-05-10T13:22:32;5.72;;;2.97;;
56752;SDS011;42627;42.646;23.642;2023-05-10T13:24:33;5.05;;;2.78;;
56752;SDS011;42627;42.646;23.642;2023-05-10T13:26:33;3.95;;;2.42;;
56752;SDS011;42627;42.646;23.642;2023-05-10T13:28:43;5.00;;;2.75;;
56752;SDS011;42627;42.646;23.642;2023-05-10T13:30:45;4.90;;;2.65;;
56752;SDS011;42627;42.646;23.642;2023-05-10T13:32:46;5.50;;;2.40;;
56752;SDS011;42627;42.646;23.642;2023-05-10T13:34:47;5.35;;;2.90;;
56752;SDS011;42627;42.646;23.642;2023-05-10T13:36:47;4.05;;;2.85;;
56752;SDS011;42627;42.646;23.642;2023-05-10T13:39:06;5.63;;;3.05;;
56752;SDS011;42627;42.646;23.642;2023-05-10T13:41:20;5.53;;;2.85;;
56752;SDS011;42627;42.646;23.642;2023-05-10T13:43:42;5.65;;;2.97;;
56752;SDS011;42627;42.646;23.642;2023-05-10T13:45:43;5.75;;;2.53;;
56752;SDS011;42627;42.646;23.642;2023-05-10T13:47:44;3.67;;;2.03;;
56752;SDS011;42627;42.646;23.642;2023-05-10T13:49:44;6.20;;;2.60;;
56752;SDS011;42627;42.646;23.642;2023-05-10T13:51:45;5.95;;;2.95;;
56752;SDS011;42627;42.646;23.642;2023-05-10T13:53:46;5.68;;;2.90;;
56752;SDS011;42627;42.646;23.642;2023-05-10T13:55:47;5.18;;;2.80;;
56752;SDS011;42627;42.646;23.642;2023-05-10T14:02:14;5.47;;;2.83;;
56752;SDS011;42627;42.646;23.642;2023-05-10T14:04:15;5.07;;;2.40;;
56752;SDS011;42627;42.646;23.642;2023-05-10T14:06:16;6.57;;;3.05;;
56752;SDS011;42627;42.646;23.642;2023-05-10T14:13:21;4.53;;;2.83;;
56752;SDS011;42627;42.646;23.642;2023-05-10T14:15:21;7.70;;;3.28;;
56752;SDS011;42627;42.646;23.642;2023-05-10T14:17:25;5.25;;;2.70;;
56752;SDS011;42627;42.646;23.642;2023-05-10T14:19:25;4.90;;;2.42;;
56752;SDS011;42627;42.646;23.642;2023-05-10T14:21:27;5.70;;;3.03;;
56752;SDS011;42627;42.646;23.642;2023-05-10T14:23:29;5.13;;;2.83;;
56752;SDS011;42627;42.646;23.642;2023-05-10T14:25:30;6.20;;;2.75;;
56752;SDS011;42627;42.646;23.642;2023-05-10T14:29:41;6.50;;;2.75;;